Time;durP1;ratioP1;P1;durP2;ratioP2;P2;SDS_P1;SDS_P2;PMS_P1;PMS_P2;Temp;Humidity;BMP_temperature;BMP_pressure;BME280_temperature;BME280_humidity;BME280_pressure;Samples;Min_cycle;Max_cycle;Signal;HPM_P1;HPM_P2
2024/04/22 00:02:13;;;;;;;;;;;;;;;8.23;100.00;99675.28;5493436;26;19924;-82
2024/04/22 00:04:39;;;;;;;;;;;;;;;8.25;100.00;99681.19;5494671;26;20248;-81
2024/04/22 00:07:04;;;;;;;;;;;;;;;8.30;100.00;99678.72;5495809;26;19986;-82
2024/04/22 00:09:29;;;;;;;;;;;;;;;8.31;100.00;99682.19;5493724;26;19924;-82
2024/04/22 00:11:54;;;;;;;;;;;;;;;8.30;100.00;99681.38;5493942;26;19931;-83
2024/04/22 00:14:20;;;;;;;;;;;;;;;8.39;100.00;99687.25;5493882;26;19931;-82
2024/04/22 00:16:45;;;;;;;;;;;;;;;8.19;100.00;99682.88;5500461;26;20349;-81
2024/04/22 00:19:10;;;;;;;;;;;;;;;8.48;100.00;99691.31;5499629;26;19924;-82
2024/04/22 00:21:36;;;;;;;;;;;;;;;8.20;100.00;99694.31;5498020;26;19993;-83
2024/04/22 00:24:01;;;;;;;;;;;;;;;8.22;100.00;99697.56;5494076;26;19930;-83
2024/04/22 00:26:26;;;;;;;;;;;;;;;8.10;100.00;99693.97;5497994;26;19949;-82
2024/04/22 00:28:52;;;;;;;;;;;;;;;7.98;100.00;99691.94;5498835;26;19924;-84
2024/04/22 00:31:18;;;;;;;;;;;;;;;8.04;100.00;99688.44;5498901;26;19923;-82
2024/04/22 00:33:43;;;;;;;;;;;;;;;8.16;100.00;99687.78;5495075;26;20288;-82
2024/04/22 00:36:08;;;;;;;;;;;;;;;8.12;100.00;99697.22;5494590;26;19936;-83
2024/04/22 00:38:33;;;;;;;;;;;;;;;8.21;100.00;99709.22;5488855;26;19931;-84
2024/04/22 00:40:59;;;;;;;;;;;;;;;8.13;100.00;99709.44;5489065;26;19924;-83
2024/04/22 00:43:24;;;;;;;;;;;;;;;8.25;100.00;99707.75;5467472;26;19924;-81
2024/04/22 00:45:50;;;;;;;;;;;;;;;8.00;100.00;99703.16;5451470;26;19952;-83
2024/04/22 00:48:16;;;;;;;;;;;;;;;7.97;100.00;99711.56;5451932;26;19940;-82
2024/04/22 00:50:42;;;;;;;;;;;;;;;8.20;100.00;99713.72;5451870;26;19925;-83
2024/04/22 00:53:08;;;;;;;;;;;;;;;8.02;100.00;99730.34;5454465;26;19929;-83
2024/04/22 00:55:35;;;;;;;;;;;;;;;7.98;100.00;99734.44;5451612;26;19948;-84
2024/04/22 00:58:02;;;;;;;;;;;;;;;7.98;100.00;99736.28;5451369;26;19935;-83
2024/04/22 01:00:27;;;;;;;;;;;;;;;7.90;100.00;99737.31;5451388;26;20285;-82
2024/04/22 01:02:53;;;;;;;;;;;;;;;8.00;100.00;99750.97;5464333;26;20345;-84
2024/04/22 01:05:18;;;;;;;;;;;;;;;7.93;100.00;99752.84;5487675;26;19924;-83
2024/04/22 01:07:44;;;;;;;;;;;;;;;7.85;100.00;99753.06;5487799;26;19924;-83
2024/04/22 01:10:09;;;;;;;;;;;;;;;7.91;100.00;99757.56;5489525;26;19924;-84
2024/04/22 01:12:35;;;;;;;;;;;;;;;7.98;100.00;99755.69;5481858;26;19924;-83
2024/04/22 01:15:00;;;;;;;;;;;;;;;8.01;100.00;99757.94;5451024;26;19924;-84
2024/04/22 01:17:43;;;;;;;;;;;;;;;8.06;100.00;99759.94;5451014;26;20394;-83
2024/04/22 01:20:08;;;;;;;;;;;;;;;8.08;100.00;99754.44;5451571;26;19931;-84
2024/04/22 01:22:34;;;;;;;;;;;;;;;7.97;100.00;99766.53;5455292;26;19924;-84
2024/04/22 01:24:59;;;;;;;;;;;;;;;7.89;100.00;99756.13;5451261;26;19930;-83
2024/04/22 01:27:25;;;;;;;;;;;;;;;7.99;100.00;99765.28;5450658;26;19974;-84
2024/04/22 01:29:50;;;;;;;;;;;;;;;7.91;100.00;99770.81;5450682;26;19997;-83
2024/04/22 01:32:16;;;;;;;;;;;;;;;7.94;100.00;99770.41;5450991;26;20135;-83
2024/04/22 01:34:41;;;;;;;;;;;;;;;8.19;100.00;99772.34;5485815;26;19924;-85
2024/04/22 01:37:06;;;;;;;;;;;;;;;8.17;100.00;99780.56;5487072;26;19924;-83
2024/04/22 01:39:32;;;;;;;;;;;;;;;8.15;100.00;99787.91;5487014;26;19924;-82
2024/04/22 01:41:57;;;;;;;;;;;;;;;8.36;100.00;99792.13;5488589;26;20268;-82
2024/04/22 01:44:22;;;;;;;;;;;;;;;8.32;100.00;99792.75;5458357;26;19925;-83
2024/04/22 01:46:48;;;;;;;;;;;;;;;8.26;100.00;99805.03;5452008;26;19925;-82
2024/04/22 01:49:13;;;;;;;;;;;;;;;8.38;100.00;99802.56;5450421;26;19944;-82
2024/04/22 01:51:39;;;;;;;;;;;;;;;8.56;100.00;99809.84;5450348;26;19931;-81
2024/04/22 01:54:04;;;;;;;;;;;;;;;8.42;100.00;99809.91;5474835;26;19946;-83
2024/04/22 01:56:30;;;;;;;;;;;;;;;8.48;100.00;99812.75;5485891;26;19931;-84
2024/04/22 01:58:55;;;;;;;;;;;;;;;8.26;100.00;99810.34;5486637;26;19928;-83
2024/04/22 02:01:21;;;;;;;;;;;;;;;8.36;100.00;99808.06;5488420;26;19930;-83
2024/04/22 02:03:46;;;;;;;;;;;;;;;8.42;100.00;99820.53;5483736;26;19924;-83
2024/04/22 02:06:11;;;;;;;;;;;;;;;8.53;100.00;99820.91;5486412;26;19935;-83
2024/04/22 02:08:37;;;;;;;;;;;;;;;8.48;100.00;99818.06;5486348;26;20387;-84
2024/04/22 02:11:02;;;;;;;;;;;;;;;8.45;100.00;99821.94;5486122;26;19924;-81
2024/04/22 02:13:27;;;;;;;;;;;;;;;8.52;100.00;99811.28;5483102;26;20245;-83
2024/04/22 02:15:52;;;;;;;;;;;;;;;8.31;100.00;99813.19;5486540;26;20282;-84
2024/04/22 02:18:18;;;;;;;;;;;;;;;8.43;100.00;99821.34;5486585;26;19924;-83
2024/04/22 02:20:43;;;;;;;;;;;;;;;8.28;100.00;99818.13;5488234;26;20261;-81
2024/04/22 02:23:09;;;;;;;;;;;;;;;8.29;100.00;99820.53;5486404;26;19938;-83
2024/04/22 02:25:34;;;;;;;;;;;;;;;8.21;100.00;99818.13;5486359;26;19935;-81
2024/04/22 02:27:59;;;;;;;;;;;;;;;8.18;100.00;99797.31;5487498;26;20277;-82
2024/04/22 02:30:25;;;;;;;;;;;;;;;8.33;100.00;99815.63;5488369;26;19931;-82
2024/04/22 02:32:50;;;;;;;;;;;;;;;8.40;100.00;99817.25;5483406;26;19924;-81
2024/04/22 02:35:15;;;;;;;;;;;;;;;8.15;100.00;99821.59;5449925;26;19925;-83
2024/04/22 02:37:40;;;;;;;;;;;;;;;8.29;100.00;99823.19;5449743;26;19924;-82
2024/04/22 02:40:06;;;;;;;;;;;;;;;8.28;100.00;99834.88;5449589;26;19924;-83
2024/04/22 02:42:31;;;;;;;;;;;;;;;8.43;100.00;99816.84;5449587;26;19925;-83
2024/04/22 02:44:56;;;;;;;;;;;;;;;8.54;100.00;99827.84;5482317;26;19959;-82
2024/04/22 02:47:22;;;;;;;;;;;;;;;8.54;100.00;99827.84;5485668;26;19983;-84
2024/04/22 02:49:47;;;;;;;;;;;;;;;8.63;100.00;99837.22;5485790;26;19935;-82
2024/04/22 02:52:12;;;;;;;;;;;;;;;8.78;100.00;99835.09;5485546;26;19931;-82
2024/04/22 02:54:37;;;;;;;;;;;;;;;8.42;100.00;99847.13;5484216;26;19991;-84
2024/04/22 02:57:03;;;;;;;;;;;;;;;8.42;100.00;99841.81;5485343;26;19930;-83
2024/04/22 02:59:29;;;;;;;;;;;;;;;8.45;100.00;99836.03;5485546;26;19924;-82
2024/04/22 03:01:54;;;;;;;;;;;;;;;8.59;100.00;99843.97;5487018;26;19932;-82
2024/04/22 03:04:19;;;;;;;;;;;;;;;8.51;100.00;99849.53;5464737;26;20018;-82
2024/04/22 03:06:46;;;;;;;;;;;;;;;8.41;100.00;99848.13;5448656;26;20376;-83
2024/04/22 03:09:12;;;;;;;;;;;;;;;8.26;100.00;99852.84;5452181;26;19931;-82
2024/04/22 03:11:37;;;;;;;;;;;;;;;8.21;100.00;99855.31;5454312;26;19925;-82
2024/04/22 03:14:02;;;;;;;;;;;;;;;8.32;100.00;99862.66;5469514;26;19924;-82
2024/04/22 03:16:28;;;;;;;;;;;;;;;8.33;100.00;99866.94;5489304;26;20439;-81
2024/04/22 03:18:53;;;;;;;;;;;;;;;8.24;100.00;99870.84;5489297;26;19924;-83
2024/04/22 03:21:18;;;;;;;;;;;;;;;8.30;100.00;99870.00;5489330;26;20256;-81
2024/04/22 03:23:43;;;;;;;;;;;;;;;8.27;100.00;99880.22;5485683;26;19924;-84
2024/04/22 03:26:10;;;;;;;;;;;;;;;8.44;100.00;99886.78;5488495;26;20260;-82
2024/04/22 03:28:37;;;;;;;;;;;;;;;8.37;100.00;99899.22;5490040;26;20249;-83
2024/04/22 03:31:02;;;;;;;;;;;;;;;8.38;100.00;99899.00;5488631;26;19936;-82
2024/04/22 03:33:28;;;;;;;;;;;;;;;8.60;100.00;99907.56;5485547;26;20614;-84
2024/04/22 03:35:53;;;;;;;;;;;;;;;8.52;100.00;99914.94;5488675;26;19924;-83
2024/04/22 03:38:18;;;;;;;;;;;;;;;8.62;100.00;99915.31;5488561;26;20329;-83
2024/04/22 03:40:43;;;;;;;;;;;;;;;8.63;100.00;99922.28;5488622;26;19930;-86
2024/04/22 03:43:10;;;;;;;;;;;;;;;8.71;100.00;99923.91;5487249;26;19928;-83
2024/04/22 03:45:35;;;;;;;;;;;;;;;8.33;100.00;99921.91;5452144;26;20343;-83
2024/04/22 03:50:44;;;;;;;;;;;;;;;8.28;100.00;99941.13;5454226;26;19989;-82
2024/04/22 03:53:10;;;;;;;;;;;;;;;8.21;100.00;99932.34;5452492;26;19933;-83
2024/04/22 03:55:35;;;;;;;;;;;;;;;8.24;100.00;99935.41;5488316;26;20242;-83
2024/04/22 03:58:00;;;;;;;;;;;;;;;8.41;100.00;99941.13;5488448;26;19992;-84
2024/04/22 04:00:26;;;;;;;;;;;;;;;8.27;100.00;99939.50;5488518;26;19924;-82
2024/04/22 04:02:51;;;;;;;;;;;;;;;8.18;100.00;99946.88;5488407;26;19941;-83
2024/04/22 04:05:16;;;;;;;;;;;;;;;8.63;100.00;99952.34;5456597;26;19931;-83
2024/04/22 04:07:42;;;;;;;;;;;;;;;8.62;100.00;99957.84;5451521;26;19962;-82
2024/04/22 04:10:07;;;;;;;;;;;;;;;8.52;100.00;99960.13;5451890;26;19925;-83
2024/04/22 04:12:32;;;;;;;;;;;;;;;8.51;100.00;99961.16;5451356;26;19941;-83
2024/04/22 04:14:58;;;;;;;;;;;;;;;8.59;100.00;99968.91;5432306;26;1183381;-84
2024/04/22 04:17:23;;;;;;;;;;;;;;;8.65;100.00;99973.41;5487718;26;19931;-82
2024/04/22 04:19:48;;;;;;;;;;;;;;;8.69;100.00;99979.94;5487381;26;20381;-82
2024/04/22 04:22:13;;;;;;;;;;;;;;;8.99;100.00;99985.56;5489695;26;19924;-83
2024/04/22 04:24:39;;;;;;;;;;;;;;;8.91;100.00;99988.47;5484981;26;19932;-84
2024/04/22 04:27:04;;;;;;;;;;;;;;;9.08;100.00;99994.13;5487478;26;20014;-85
2024/04/22 04:29:29;;;;;;;;;;;;;;;8.97;100.00;99994.75;5487558;26;19970;-82
2024/04/22 04:31:55;;;;;;;;;;;;;;;9.22;100.00;100003.69;5488042;26;19931;-83
2024/04/22 04:34:20;;;;;;;;;;;;;;;9.35;100.00;100000.13;5472919;26;19929;-82
2024/04/22 04:36:45;;;;;;;;;;;;;;;9.32;100.00;100008.56;5451207;26;19931;-83
2024/04/22 04:39:11;;;;;;;;;;;;;;;9.56;100.00;100009.69;5451274;26;19925;-83
2024/04/22 04:41:36;;;;;;;;;;;;;;;9.67;100.00;100008.16;5451589;26;20386;-81
2024/04/22 04:44:01;;;;;;;;;;;;;;;9.61;100.00;100017.00;5460006;26;20306;-82
2024/04/22 04:46:26;;;;;;;;;;;;;;;9.63;100.00;100015.75;5475521;26;19924;-82
2024/04/22 04:48:52;;;;;;;;;;;;;;;9.79;100.00;100014.44;5467930;26;20331;-83
2024/04/22 04:51:17;;;;;;;;;;;;;;;9.94;100.00;100021.31;5466976;26;19923;-83
2024/04/22 04:53:42;;;;;;;;;;;;;;;9.78;100.00;100019.97;5459321;26;19996;-83
2024/04/22 04:56:07;;;;;;;;;;;;;;;9.89;100.00;100015.81;5487509;26;19924;-82
2024/04/22 04:58:33;;;;;;;;;;;;;;;9.96;100.00;100009.41;5483190;26;19924;-83
2024/04/22 05:00:58;;;;;;;;;;;;;;;10.10;100.00;100011.97;5462378;26;19965;-84
2024/04/22 05:03:23;;;;;;;;;;;;;;;9.96;100.00;100022.72;5450781;26;19924;-81
2024/04/22 05:06:01;;;;;;;;;;;;;;;10.10;100.00;100027.97;5484690;26;20345;-83
2024/04/22 05:08:27;;;;;;;;;;;;;;;10.20;100.00;100037.09;5487024;26;20345;-82
2024/04/22 05:10:52;;;;;;;;;;;;;;;10.39;100.00;100043.34;5487297;26;19931;-82
2024/04/22 05:13:17;;;;;;;;;;;;;;;10.70;100.00;100044.28;5486712;26;19924;-81
2024/04/22 05:15:43;;;;;;;;;;;;;;;10.69;100.00;100053.34;5454883;26;19931;-82
2024/04/22 05:18:08;;;;;;;;;;;;;;;10.77;100.00;100047.72;5450508;26;19924;-80
2024/04/22 05:20:34;;;;;;;;;;;;;;;10.84;100.00;100051.13;5450665;26;19924;-84
2024/04/22 05:22:59;;;;;;;;;;;;;;;10.77;100.00;100052.25;5450480;26;19924;-82
2024/04/22 05:25:24;;;;;;;;;;;;;;;10.73;100.00;100062.53;5453387;26;20299;-82
2024/04/22 05:27:49;;;;;;;;;;;;;;;10.59;100.00;100063.69;5452076;26;19931;-80
2024/04/22 05:30:15;;;;;;;;;;;;;;;10.80;100.00;100055.25;5450486;26;19924;-81
2024/04/22 05:32:41;;;;;;;;;;;;;;;11.10;100.00;100067.09;5469860;26;19935;-81
2024/04/22 05:37:50;;;;;;;;;;;;;;;11.14;100.00;100081.63;5466969;26;20858;-82
2024/04/22 05:40:16;;;;;;;;;;;;;;;11.14;100.00;100082.44;5470311;26;19924;-81
2024/04/22 05:42:41;;;;;;;;;;;;;;;11.22;100.00;100087.47;5488586;26;19924;-82
2024/04/22 05:45:06;;;;;;;;;;;;;;;11.54;100.00;100087.28;5468784;26;20298;-82
2024/04/22 05:47:31;;;;;;;;;;;;;;;11.67;100.00;100099.69;5450193;26;19933;-82
2024/04/22 05:49:57;;;;;;;;;;;;;;;11.56;100.00;100095.91;5451875;26;19931;-81
2024/04/22 05:52:22;;;;;;;;;;;;;;;11.66;100.00;100095.38;5450029;26;20253;-80
2024/04/22 05:54:47;;;;;;;;;;;;;;;11.81;100.00;100100.31;5466045;26;19936;-81
2024/04/22 05:57:12;;;;;;;;;;;;;;;11.88;100.00;100114.41;5486105;26;20242;-80
2024/04/22 05:59:38;;;;;;;;;;;;;;;12.00;100.00;100117.97;5485148;26;19923;-82
2024/04/22 06:02:03;;;;;;;;;;;;;;;12.04;100.00;100113.81;5485742;26;20006;-80
2024/04/22 06:04:31;;;;;;;;;;;;;;;12.17;100.00;100117.31;5487368;26;19931;-81
2024/04/22 06:06:56;;;;;;;;;;;;;;;12.06;100.00;100130.44;5486067;26;19924;-82
2024/04/22 06:09:22;;;;;;;;;;;;;;;12.12;97.50;100131.38;5488052;26;19931;-79
2024/04/22 06:11:48;;;;;;;;;;;;;;;12.27;100.00;100131.75;5485174;26;19952;-83
2024/04/22 06:14:13;;;;;;;;;;;;;;;12.33;100.00;100132.72;5484963;26;20249;-82
2024/04/22 06:16:38;;;;;;;;;;;;;;;12.49;99.88;100136.59;5485771;26;19931;-83
2024/04/22 06:19:04;;;;;;;;;;;;;;;12.42;100.00;100126.00;5487566;26;19993;-82
2024/04/22 06:21:29;;;;;;;;;;;;;;;12.72;100.00;100141.16;5485833;26;20385;-82
2024/04/22 06:23:54;;;;;;;;;;;;;;;12.64;100.00;100133.47;5487568;26;19924;-82
2024/04/22 06:26:20;;;;;;;;;;;;;;;12.62;96.50;100136.38;5482903;26;19931;-81
2024/04/22 06:28:45;;;;;;;;;;;;;;;12.85;97.02;100146.31;5485524;26;20618;-82
2024/04/22 06:31:10;;;;;;;;;;;;;;;12.83;96.16;100142.22;5487479;26;19931;-81
2024/04/22 06:33:40;;;;;;;;;;;;;;;12.68;92.11;100153.38;5456511;26;19924;-81
2024/04/22 06:36:05;;;;;;;;;;;;;;;12.31;91.31;100164.22;5452027;26;19924;-82
2024/04/22 06:38:31;;;;;;;;;;;;;;;12.36;93.67;100158.19;5449217;26;19924;-79
2024/04/22 06:40:56;;;;;;;;;;;;;;;12.52;94.12;100162.06;5449283;26;19932;-80
2024/04/22 06:43:22;;;;;;;;;;;;;;;12.77;94.36;100165.38;5449993;26;19976;-81
2024/04/22 06:45:47;;;;;;;;;;;;;;;12.70;89.43;100169.22;5471639;26;19924;-81
2024/04/22 06:48:12;;;;;;;;;;;;;;;12.93;92.58;100165.72;5484955;26;19924;-81
2024/04/22 06:50:38;;;;;;;;;;;;;;;12.98;90.90;100171.22;5487134;26;19924;-79
2024/04/22 06:53:03;;;;;;;;;;;;;;;13.09;90.66;100164.22;5486297;26;19924;-79
2024/04/22 06:55:29;;;;;;;;;;;;;;;13.02;90.41;100177.75;5486047;26;19930;-80
2024/04/22 06:57:54;;;;;;;;;;;;;;;13.25;90.15;100176.91;5484987;26;20318;-79
2024/04/22 07:00:19;;;;;;;;;;;;;;;13.46;88.98;100184.41;5486703;26;19931;-80
2024/04/22 07:02:46;;;;;;;;;;;;;;;13.46;83.84;100194.28;5486558;26;20241;-80
2024/04/22 07:05:11;;;;;;;;;;;;;;;13.34;86.66;100190.78;5481763;26;19934;-80
2024/04/22 07:07:37;;;;;;;;;;;;;;;13.52;83.77;100192.53;5484368;26;20364;-81
2024/04/22 07:10:03;;;;;;;;;;;;;;;13.49;85.04;100198.38;5480344;26;19934;-80
2024/04/22 07:12:28;;;;;;;;;;;;;;;13.55;88.06;100208.16;5467002;26;19931;-79
2024/04/22 07:14:53;;;;;;;;;;;;;;;13.52;83.66;100213.97;5468301;26;19931;-79
2024/04/22 07:17:20;;;;;;;;;;;;;;;13.56;80.28;100213.25;5468927;26;19923;-80
2024/04/22 07:19:45;;;;;;;;;;;;;;;13.46;82.03;100210.34;5465987;26;20358;-79
2024/04/22 07:22:10;;;;;;;;;;;;;;;13.64;86.25;100199.50;5470426;26;19931;-80
2024/04/22 07:24:36;;;;;;;;;;;;;;;14.01;88.81;100207.22;5473657;26;19928;-79
2024/04/22 07:27:01;;;;;;;;;;;;;;;14.26;83.91;100212.28;5475090;26;19924;-80
2024/04/22 07:29:27;;;;;;;;;;;;;;;14.20;82.46;100209.72;5485742;26;19928;-80
2024/04/22 07:31:52;;;;;;;;;;;;;;;14.15;79.31;100223.84;5480122;26;19949;-79
2024/04/22 07:34:17;;;;;;;;;;;;;;;14.02;81.42;100224.94;5464186;26;20354;-79
2024/04/22 07:36:47;;;;;;;;;;;;;;;14.29;82.39;100213.66;5474181;26;19936;-79
2024/04/22 07:39:17;;;;;;;;;;;;;;;14.66;87.03;100224.00;5467591;26;19924;-79
2024/04/22 07:41:42;;;;;;;;;;;;;;;14.91;85.75;100228.19;5470235;26;19931;-80
2024/04/22 07:44:07;;;;;;;;;;;;;;;14.83;78.57;100219.50;5469228;26;19925;-78
2024/04/22 07:46:33;;;;;;;;;;;;;;;14.60;84.04;100225.78;5468684;26;20432;-80
2024/04/22 07:48:58;;;;;;;;;;;;;;;14.71;81.46;100232.16;5464135;26;19972;-79
2024/04/22 07:51:23;;;;;;;;;;;;;;;14.97;79.50;100225.34;5464497;26;19932;-79
2024/04/22 07:53:49;;;;;;;;;;;;;;;15.20;77.81;100235.13;5466030;26;19924;-79
2024/04/22 07:56:15;;;;;;;;;;;;;;;15.11;74.89;100241.13;5473120;26;19993;-79
2024/04/22 07:58:41;;;;;;;;;;;;;;;15.15;71.19;100237.72;5467322;26;19940;-78
2024/04/22 08:01:06;;;;;;;;;;;;;;;15.18;67.79;100247.97;5468377;26;20961;-79
2024/04/22 08:03:32;;;;;;;;;;;;;;;15.29;65.88;100248.13;5468330;26;20335;-79
2024/04/22 08:06:01;;;;;;;;;;;;;;;14.83;68.06;100243.66;5470997;26;19924;-80
2024/04/22 08:08:30;;;;;;;;;;;;;;;15.22;65.10;100254.50;5470357;26;20585;-79
2024/04/22 08:10:55;;;;;;;;;;;;;;;15.07;64.74;100251.53;5467911;26;19925;-78
2024/04/22 08:13:20;;;;;;;;;;;;;;;15.24;65.11;100241.63;5470985;26;20260;-79
2024/04/22 08:15:46;;;;;;;;;;;;;;;15.44;64.39;100248.34;5473003;26;20368;-79
2024/04/22 08:18:14;;;;;;;;;;;;;;;15.32;63.62;100245.75;5467829;26;19957;-79
2024/04/22 08:20:39;;;;;;;;;;;;;;;15.61;62.96;100251.00;5462148;26;19941;-79
2024/04/22 08:23:05;;;;;;;;;;;;;;;15.63;57.61;100247.03;5484674;26;19932;-80
2024/04/22 08:25:30;;;;;;;;;;;;;;;16.06;58.87;100237.38;5479045;26;19924;-81
2024/04/22 08:27:55;;;;;;;;;;;;;;;16.00;56.77;100243.78;5452075;26;19932;-80
2024/04/22 08:30:21;;;;;;;;;;;;;;;16.16;60.45;100227.78;5452486;26;19924;-81
2024/04/22 08:32:46;;;;;;;;;;;;;;;15.99;59.80;100225.19;5450426;26;20266;-80
2024/04/22 08:35:11;;;;;;;;;;;;;;;15.68;57.93;100227.47;5454950;26;20380;-80
2024/04/22 08:37:36;;;;;;;;;;;;;;;16.04;57.90;100239.50;5452303;26;20001;-79
2024/04/22 08:40:02;;;;;;;;;;;;;;;15.63;56.43;100243.50;5452179;26;19932;-81
2024/04/22 08:42:27;;;;;;;;;;;;;;;16.02;56.57;100230.88;5452052;26;20351;-80
2024/04/22 08:44:52;;;;;;;;;;;;;;;16.32;60.04;100234.97;5452635;26;20022;-80
2024/04/22 08:47:18;;;;;;;;;;;;;;;16.51;54.01;100237.31;5453401;26;19931;-80
2024/04/22 08:49:43;;;;;;;;;;;;;;;16.96;55.94;100238.84;5452036;26;19924;-82
2024/04/22 08:52:09;;;;;;;;;;;;;;;17.44;53.77;100240.53;5452052;26;19931;-81
2024/04/22 08:54:35;;;;;;;;;;;;;;;17.45;50.02;100252.16;5450550;26;19925;-80
2024/04/22 08:57:00;;;;;;;;;;;;;;;17.38;49.95;100241.56;5482487;26;19931;-80
2024/04/22 08:59:26;;;;;;;;;;;;;;;17.26;49.43;100244.47;5488781;26;19959;-80
2024/04/22 09:02:02;;;;;;;;;;;;;;;17.22;49.18;100243.38;5486842;26;19928;-80
2024/04/22 09:04:27;;;;;;;;;;;;;;;17.08;53.18;100231.41;5483099;26;19931;-81
2024/04/22 09:06:53;;;;;;;;;;;;;;;16.85;55.25;100222.59;5484622;26;19948;-82
2024/04/22 09:09:18;;;;;;;;;;;;;;;17.66;56.63;100226.91;5487867;26;19924;-82
2024/04/22 09:11:49;;;;;;;;;;;;;;;17.31;53.76;100224.03;5485328;26;19924;-81
2024/04/22 09:14:15;;;;;;;;;;;;;;;17.46;52.45;100227.59;5485481;26;19924;-82
2024/04/22 09:16:40;;;;;;;;;;;;;;;17.94;53.31;100216.00;5481693;26;19924;-83
2024/04/22 09:19:05;;;;;;;;;;;;;;;17.81;51.57;100218.06;5485121;26;19930;-82
2024/04/22 09:21:34;;;;;;;;;;;;;;;18.17;49.35;100236.34;5485734;26;20578;-81
2024/04/22 09:24:00;;;;;;;;;;;;;;;18.25;47.21;100228.53;5486719;26;19930;-81
2024/04/22 09:26:26;;;;;;;;;;;;;;;18.61;47.43;100222.38;5485112;26;19924;-81
2024/04/22 09:28:51;;;;;;;;;;;;;;;18.98;48.54;100218.66;5487574;26;19931;-80
2024/04/22 09:31:18;;;;;;;;;;;;;;;19.09;49.49;100230.28;5485602;26;19992;-81
2024/04/22 09:33:43;;;;;;;;;;;;;;;18.55;44.40;100228.84;5485683;26;19977;-82
2024/04/22 09:36:09;;;;;;;;;;;;;;;18.76;48.00;100227.00;5472544;26;19924;-81
2024/04/22 09:38:35;;;;;;;;;;;;;;;18.74;46.31;100234.56;5480700;26;19924;-83
2024/04/22 09:41:03;;;;;;;;;;;;;;;18.43;47.25;100234.53;5487243;26;20268;-81
2024/04/22 09:43:34;;;;;;;;;;;;;;;18.69;49.26;100229.94;5485871;26;19924;-82
2024/04/22 09:46:02;;;;;;;;;;;;;;;18.71;45.20;100238.59;5476966;26;19924;-81
2024/04/22 09:48:28;;;;;;;;;;;;;;;18.75;46.99;100228.88;5471447;26;19931;-80
2024/04/22 09:50:55;;;;;;;;;;;;;;;19.12;44.23;100230.53;5487249;26;19942;-80
2024/04/22 09:53:22;;;;;;;;;;;;;;;19.01;43.40;100228.94;5487112;26;19993;-80
2024/04/22 09:55:48;;;;;;;;;;;;;;;19.03;42.56;100232.97;5482759;26;20037;-82
2024/04/22 09:58:14;;;;;;;;;;;;;;;19.62;47.03;100218.00;5469939;26;19924;-80
2024/04/22 10:00:39;;;;;;;;;;;;;;;19.75;42.82;100221.25;5474594;26;19956;-82
2024/04/22 10:03:05;;;;;;;;;;;;;;;20.22;45.35;100214.53;5482340;26;19924;-80
2024/04/22 10:05:31;;;;;;;;;;;;;;;20.83;41.88;100213.34;5485409;26;19924;-82
2024/04/22 10:08:01;;;;;;;;;;;;;;;20.59;37.29;100218.66;5478667;26;19928;-82
2024/04/22 10:10:27;;;;;;;;;;;;;;;20.60;39.33;100204.03;5486804;26;19923;-82
2024/04/22 10:12:52;;;;;;;;;;;;;;;20.98;41.10;100196.13;5486806;26;19983;-79
2024/04/22 10:15:19;;;;;;;;;;;;;;;21.03;40.88;100202.31;5486335;26;19930;-81
2024/04/22 10:17:45;;;;;;;;;;;;;;;21.20;38.18;100204.59;5482933;26;19931;-81
2024/04/22 10:20:10;;;;;;;;;;;;;;;20.83;38.70;100197.88;5485067;26;19932;-80
2024/04/22 10:22:36;;;;;;;;;;;;;;;20.73;39.03;100202.56;5486665;26;19924;-81
2024/04/22 10:25:05;;;;;;;;;;;;;;;20.71;37.17;100207.47;5485320;26;20253;-80
2024/04/22 10:27:30;;;;;;;;;;;;;;;21.02;35.68;100213.44;5486142;26;20071;-80
2024/04/22 10:29:56;;;;;;;;;;;;;;;20.86;33.98;100204.63;5486510;26;20404;-82
2024/04/22 10:32:21;;;;;;;;;;;;;;;20.95;33.87;100205.63;5486557;26;19924;-82
2024/04/22 10:34:47;;;;;;;;;;;;;;;21.49;36.61;100206.50;5484502;26;20234;-82
2024/04/22 10:37:13;;;;;;;;;;;;;;;22.05;35.83;100194.97;5485966;26;20317;-81
2024/04/22 10:39:38;;;;;;;;;;;;;;;21.31;43.05;100185.50;5484349;26;20269;-81
2024/04/22 10:42:04;;;;;;;;;;;;;;;20.91;39.35;100187.53;5486555;26;19924;-82
2024/04/22 10:44:29;;;;;;;;;;;;;;;20.52;40.29;100181.03;5484110;26;20246;-81
2024/04/22 10:46:55;;;;;;;;;;;;;;;20.78;39.68;100186.25;5479899;26;19924;-80
2024/04/22 10:49:20;;;;;;;;;;;;;;;20.86;36.44;100191.91;5484506;26;19935;-80
2024/04/22 10:51:45;;;;;;;;;;;;;;;21.22;38.85;100194.25;5485831;26;19923;-79
2024/04/22 10:54:12;;;;;;;;;;;;;;;21.45;33.92;100186.47;5484174;26;19924;-80
2024/04/22 10:56:37;;;;;;;;;;;;;;;21.61;33.18;100187.09;5476926;26;19932;-81
2024/04/22 10:59:03;;;;;;;;;;;;;;;21.32;33.45;100192.56;5485990;26;19923;-81
2024/04/22 11:01:28;;;;;;;;;;;;;;;21.58;34.76;100183.06;5486082;26;20000;-82
2024/04/22 11:03:54;;;;;;;;;;;;;;;22.29;35.29;100183.22;5484458;26;19930;-80
2024/04/22 11:06:19;;;;;;;;;;;;;;;22.57;35.21;100188.81;5476329;26;19924;-81
2024/04/22 11:08:45;;;;;;;;;;;;;;;21.99;32.38;100185.25;5484879;26;20310;-81
2024/04/22 11:11:12;;;;;;;;;;;;;;;21.82;33.49;100184.94;5484409;26;19924;-81
2024/04/22 11:13:38;;;;;;;;;;;;;;;22.60;32.37;100185.50;5483931;26;20384;-79
2024/04/22 11:16:09;;;;;;;;;;;;;;;21.94;32.63;100198.09;5478503;26;19960;-81
2024/04/22 11:18:35;;;;;;;;;;;;;;;22.37;31.60;100190.75;5477327;26;19931;-81
2024/04/22 11:21:01;;;;;;;;;;;;;;;22.29;33.25;100191.38;5472336;26;19924;-79
2024/04/22 11:23:26;;;;;;;;;;;;;;;22.21;32.78;100184.69;5478583;26;19932;-79
2024/04/22 11:25:51;;;;;;;;;;;;;;;22.84;33.49;100177.22;5484740;26;19934;-79
2024/04/22 11:28:18;;;;;;;;;;;;;;;22.73;34.91;100168.44;5483702;26;19924;-79
2024/04/22 11:30:43;;;;;;;;;;;;;;;22.06;32.46;100185.69;5487415;26;19992;-80
2024/04/22 11:33:08;;;;;;;;;;;;;;;21.82;35.22;100169.47;5488456;26;19924;-80
2024/04/22 11:35:34;;;;;;;;;;;;;;;20.99;34.20;100174.16;5488296;26;19934;-80
2024/04/22 11:38:00;;;;;;;;;;;;;;;20.78;36.39;100181.66;5478994;26;19924;-83
2024/04/22 11:40:25;;;;;;;;;;;;;;;20.91;37.48;100176.69;5479405;26;19939;-80
2024/04/22 11:42:51;;;;;;;;;;;;;;;21.37;33.75;100174.31;5478470;26;19924;-81
2024/04/22 11:45:17;;;;;;;;;;;;;;;22.63;33.81;100182.19;5475193;26;19942;-80
2024/04/22 11:47:42;;;;;;;;;;;;;;;23.19;32.61;100183.97;5474027;26;19938;-80
2024/04/22 11:50:07;;;;;;;;;;;;;;;23.72;31.49;100184.56;5473318;26;19939;-81
2024/04/22 11:52:32;;;;;;;;;;;;;;;23.62;30.29;100202.75;5476762;26;19924;-80
2024/04/22 11:54:58;;;;;;;;;;;;;;;22.87;30.96;100196.47;5488602;26;19931;-81
2024/04/22 11:57:23;;;;;;;;;;;;;;;22.41;33.48;100180.91;5474802;26;19924;-80
2024/04/22 11:59:48;;;;;;;;;;;;;;;22.87;33.76;100171.97;5486640;26;20355;-79
2024/04/22 12:02:16;;;;;;;;;;;;;;;23.13;33.87;100168.84;5481894;26;19931;-81
2024/04/22 12:04:42;;;;;;;;;;;;;;;24.12;30.96;100165.78;5475371;26;19945;-79
2024/04/22 12:07:07;;;;;;;;;;;;;;;24.68;30.87;100167.19;5480664;26;19966;-78
2024/04/22 12:09:32;;;;;;;;;;;;;;;25.32;28.19;100168.84;5478938;26;19936;-80
2024/04/22 12:11:58;;;;;;;;;;;;;;;25.22;30.06;100159.81;5466805;26;19997;-81
2024/04/22 12:14:23;;;;;;;;;;;;;;;25.03;28.19;100156.50;5452079;26;19928;-80
2024/04/22 12:16:48;;;;;;;;;;;;;;;23.56;31.30;100151.41;5454309;26;20260;-79
2024/04/22 12:19:14;;;;;;;;;;;;;;;23.97;31.06;100158.75;5452275;26;19925;-80
2024/04/22 12:21:39;;;;;;;;;;;;;;;23.95;32.58;100161.00;5452445;26;19936;-80
2024/04/22 12:24:04;;;;;;;;;;;;;;;23.25;32.42;100166.44;5450330;26;19925;-79
2024/04/22 12:26:30;;;;;;;;;;;;;;;22.83;34.97;100154.66;5454732;26;20658;-80
2024/04/22 12:28:55;;;;;;;;;;;;;;;22.43;35.53;100150.69;5452363;26;19990;-81
2024/04/22 12:31:20;;;;;;;;;;;;;;;22.81;34.71;100151.44;5452145;26;20265;-79
2024/04/22 12:33:45;;;;;;;;;;;;;;;23.57;31.99;100156.56;5452496;26;19924;-80
2024/04/22 12:36:11;;;;;;;;;;;;;;;24.01;31.19;100160.56;5451888;26;19924;-80